CPX324 Details

Departure: March Air Reserve Base (KRIV)
Arrival: Daniel K Inouye International Airport (PHNL) at N/A
Route: SKYES3 OCN MALIT C1177 FICKY R578 FOMAS R578 DEREC MAKEN LNY JULLE5
Notes:


Current Weather Information
KRIV 251058Z AUTO 00000KT 10SM CLR 18/18 A3000 RMK AO2 SLP144 T01830181
PHNL 251053Z 08009KT 10SM CLR 28/21 A3000 RMK AO2 SLP157 T02780206